Time;durP1;ratioP1;P1;durP2;ratioP2;P2;SDS_P1;SDS_P2;PMS_P1;PMS_P2;Temp;Humidity;BMP_temperature;BMP_pressure;BME280_temperature;BME280_humidity;BME280_pressure;Samples;Min_cycle;Max_cycle;Signal;HPM_P1;HPM_P2
2021/12/30 00:01:45;;;;;;;15.20;3.77;;;;;;;18.93;58.60;100244.59;5071137;28;20179;-60
2021/12/30 00:04:11;;;;;;;9.20;2.80;;;;;;;18.92;58.22;100255.19;5072280;28;20190;-60
2021/12/30 00:06:40;;;;;;;20.17;3.47;;;;;;;18.93;58.15;100251.16;5070170;28;20210;-60
2021/12/30 00:09:10;;;;;;;15.53;3.10;;;;;;;18.91;58.18;100247.84;5070483;28;20585;-60
2021/12/30 00:11:36;;;;;;;8.90;3.20;;;;;;;18.91;58.04;100253.56;5071494;28;20981;-60
2021/12/30 00:14:01;;;;;;;13.20;2.67;;;;;;;18.93;58.22;100256.03;5070906;28;20409;-60
2021/12/30 00:16:27;;;;;;;12.10;3.20;;;;;;;18.91;58.19;100259.28;5071698;28;20191;-60
2021/12/30 00:18:52;;;;;;;13.03;3.23;;;;;;;18.90;58.21;100271.09;5069956;28;20187;-60
2021/12/30 00:21:20;;;;;;;10.07;3.30;;;;;;;18.88;58.33;100277.22;5070714;28;20230;-59
2021/12/30 00:23:45;;;;;;;11.73;3.70;;;;;;;18.90;58.05;100274.78;5070604;28;20214;-60
2021/12/30 00:26:11;;;;;;;10.27;2.60;;;;;;;18.92;58.68;100278.09;5067309;28;20527;-60
2021/12/30 00:28:36;;;;;;;12.37;2.90;;;;;;;18.88;58.23;100277.22;5053161;28;20187;-59
2021/12/30 00:31:02;;;;;;;10.60;3.30;;;;;;;18.89;58.32;100283.75;5069951;28;20187;-60
2021/12/30 00:33:32;;;;;;;9.57;3.53;;;;;;;18.87;58.49;100278.41;5071002;28;20195;-60
2021/12/30 00:35:58;;;;;;;11.63;3.33;;;;;;;18.87;58.43;100297.63;5070778;28;20519;-59
2021/12/30 00:38:48;;;;;;;10.83;3.43;;;;;;;18.87;58.83;100298.44;5071990;28;20421;-60
2021/12/30 00:41:14;;;;;;;9.47;2.87;;;;;;;18.87;58.28;100300.50;5067346;28;20191;-59
2021/12/30 00:43:39;;;;;;;10.60;3.60;;;;;;;18.87;58.31;100298.44;5070565;28;20437;-60
2021/12/30 00:46:05;;;;;;;10.20;3.13;;;;;;;18.86;58.38;100296.78;5071092;28;20707;-60
2021/12/30 00:48:31;;;;;;;12.03;3.87;;;;;;;18.85;58.07;100306.59;5071484;28;20175;-59
2021/12/30 00:50:56;;;;;;;10.20;2.63;;;;;;;18.88;58.26;100299.28;5069872;28;20947;-59
2021/12/30 00:53:22;;;;;;;11.97;3.10;;;;;;;18.85;58.06;100306.59;5071107;28;20176;-59
2021/12/30 00:55:47;;;;;;;10.60;2.97;;;;;;;18.83;58.42;100311.03;5069491;28;20194;-59
2021/12/30 00:58:13;;;;;;;9.60;2.53;;;;;;;18.85;58.11;100317.19;5085909;28;20190;-60
2021/12/30 01:00:40;;;;;;;8.33;2.30;;;;;;;18.90;57.68;100311.97;5076374;28;20701;-60
2021/12/30 01:03:06;;;;;;;8.70;2.80;;;;;;;18.88;57.89;100313.56;5070428;28;20218;-60
2021/12/30 01:05:31;;;;;;;12.00;2.73;;;;;;;18.84;58.10;100321.25;5070370;28;20956;-60
2021/12/30 01:07:57;;;;;;;17.57;3.20;;;;;;;18.84;58.16;100339.25;5069859;28;20666;-59
2021/12/30 01:10:25;;;;;;;10.70;2.80;;;;;;;18.84;58.29;100345.00;5070246;28;20175;-60
2021/12/30 01:12:52;;;;;;;7.53;2.77;;;;;;;18.85;57.89;100343.78;5069544;28;20225;-60
2021/12/30 01:15:19;;;;;;;11.07;3.47;;;;;;;18.82;58.83;100338.81;5069611;28;20449;-59
2021/12/30 01:17:51;;;;;;;10.73;2.90;;;;;;;18.84;58.08;100344.16;5069974;28;20433;-60
2021/12/30 01:20:17;;;;;;;7.33;2.63;;;;;;;18.83;58.13;100343.34;5070079;28;20406;-60
2021/12/30 01:22:42;;;;;;;10.67;2.73;;;;;;;18.85;57.89;100340.91;5071291;28;20417;-60
2021/12/30 01:25:08;;;;;;;12.80;2.87;;;;;;;18.83;57.90;100340.47;5051768;28;20480;-60
2021/12/30 01:27:36;;;;;;;15.70;3.23;;;;;;;18.83;57.83;100349.06;5070174;28;20237;-60
2021/12/30 01:30:04;;;;;;;12.57;2.77;;;;;;;18.85;58.04;100340.91;5069510;28;20179;-60
2021/12/30 01:32:29;;;;;;;8.70;2.90;;;;;;;18.84;58.11;100349.88;5069607;28;20549;-60
2021/12/30 01:34:55;;;;;;;9.43;2.60;;;;;;;18.80;58.15;100355.53;5069011;28;20825;-59
2021/12/30 01:37:22;;;;;;;8.40;2.43;;;;;;;18.84;57.90;100350.72;5067106;28;20183;-60
2021/12/30 01:39:48;;;;;;;9.27;2.93;;;;;;;18.83;57.72;100366.22;5069368;28;20175;-59
2021/12/30 01:42:13;;;;;;;15.07;3.97;;;;;;;18.84;57.95;100369.91;5050307;28;20464;-60
2021/12/30 01:44:40;;;;;;;11.97;2.60;;;;;;;18.83;57.80;100368.25;5069756;28;20187;-59
2021/12/30 01:47:06;;;;;;;14.60;2.77;;;;;;;18.82;57.96;100369.47;5069903;28;20182;-60
2021/12/30 01:49:31;;;;;;;10.10;3.10;;;;;;;18.82;58.00;100372.31;5069374;28;20441;-60
2021/12/30 01:51:57;;;;;;;8.67;3.07;;;;;;;18.84;57.78;100375.63;5069604;28;20527;-59
2021/12/30 01:54:23;;;;;;;9.73;2.47;;;;;;;18.82;58.07;100366.59;5068738;28;20171;-60
2021/12/30 01:56:50;;;;;;;10.03;3.77;;;;;;;18.81;57.95;100377.19;5087788;28;20625;-59
2021/12/30 01:59:17;;;;;;;10.47;2.80;;;;;;;18.79;58.38;100379.63;5070983;28;21039;-59
2021/12/30 02:01:42;;;;;;;11.43;2.80;;;;;;;18.80;57.93;100375.56;5068290;28;20445;-60
2021/12/30 02:04:07;;;;;;;15.33;3.90;;;;;;;18.80;58.20;100389.03;5068849;28;20480;-60
2021/12/30 02:06:33;;;;;;;15.43;3.50;;;;;;;18.81;57.96;100385.78;5068475;28;20733;-60
2021/12/30 02:09:00;;;;;;;5.77;2.40;;;;;;;18.78;58.74;100386.56;5069382;28;20273;-60
2021/12/30 02:11:25;;;;;;;9.90;3.00;;;;;;;18.81;57.80;100385.78;5069131;28;20182;-60
2021/12/30 02:13:51;;;;;;;11.17;3.23;;;;;;;18.78;57.97;100392.28;5070347;28;20413;-60
2021/12/30 02:16:18;;;;;;;10.50;2.87;;;;;;;18.83;57.93;100399.72;5069026;28;20183;-59
2021/12/30 02:18:43;;;;;;;9.37;2.57;;;;;;;18.79;57.88;100402.50;5069081;28;20232;-60
2021/12/30 02:21:09;;;;;;;9.80;2.60;;;;;;;18.80;57.82;100389.03;5087865;28;20420;-60
2021/12/30 02:23:36;;;;;;;9.83;2.70;;;;;;;18.78;57.79;100388.59;5069337;28;20170;-60
2021/12/30 02:26:04;;;;;;;7.93;2.50;;;;;;;18.79;58.19;100385.34;5076625;28;20682;-60
2021/12/30 02:28:31;;;;;;;15.83;3.50;;;;;;;18.78;57.84;100385.72;5068136;28;20460;-60
2021/12/30 02:30:57;;;;;;;10.90;3.00;;;;;;;18.79;57.89;100384.50;5069003;28;20422;-60
2021/12/30 02:33:22;;;;;;;8.60;2.77;;;;;;;18.80;57.83;100391.88;5070231;28;20898;-60
2021/12/30 02:35:48;;;;;;;10.13;2.47;;;;;;;18.77;57.90;100395.53;5067158;28;20445;-60
2021/12/30 02:38:16;;;;;;;11.00;2.67;;;;;;;18.77;57.81;100402.03;5067903;28;20183;-60
2021/12/30 02:40:45;;;;;;;11.80;2.87;;;;;;;18.79;58.12;100398.81;5068663;28;20550;-60
2021/12/30 02:43:15;;;;;;;9.30;2.70;;;;;;;18.75;57.97;100401.63;5068872;28;20437;-60
2021/12/30 02:45:41;;;;;;;5.33;2.37;;;;;;;18.77;57.80;100402.03;5057359;28;20461;-60
2021/12/30 02:48:11;;;;;;;8.60;2.57;;;;;;;18.80;57.84;100398.44;5051050;28;20892;-60
2021/12/30 02:50:37;;;;;;;6.60;2.30;;;;;;;18.76;57.81;100411.84;5049620;28;20156;-60
2021/12/30 02:53:02;;;;;;;7.13;2.40;;;;;;;18.76;57.54;100403.25;5058166;28;20460;-60
2021/12/30 02:55:28;;;;;;;7.60;2.33;;;;;;;18.78;57.80;100415.16;5067676;28;20171;-60
2021/12/30 02:57:53;;;;;;;9.70;2.57;;;;;;;18.75;57.95;100413.06;5068152;28;20575;-60
2021/12/30 03:00:19;;;;;;;10.33;2.93;;;;;;;18.76;57.90;100423.28;5047839;28;20702;-59
2021/12/30 03:02:44;;;;;;;12.30;2.67;;;;;;;18.77;57.74;100413.50;5061319;28;20216;-60
2021/12/30 03:05:14;;;;;;;6.37;2.60;;;;;;;18.78;57.87;100414.31;5069615;28;20202;-59
2021/12/30 03:07:39;;;;;;;15.83;3.17;;;;;;;18.80;57.76;100417.63;5075291;28;20264;-60
2021/12/30 03:10:06;;;;;;;12.17;2.90;;;;;;;18.78;57.63;100408.59;5076647;28;20421;-60
2021/12/30 03:12:31;;;;;;;5.80;1.70;;;;;;;18.78;57.72;100415.16;5056147;28;20632;-60
2021/12/30 03:14:58;;;;;;;7.87;2.27;;;;;;;18.76;57.65;100411.03;5075441;28;20437;-59
2021/12/30 03:17:24;;;;;;;6.23;2.37;;;;;;;18.76;57.65;100402.44;5073567;28;20191;-59
2021/12/30 03:19:53;;;;;;;6.67;2.27;;;;;;;18.75;57.51;100413.06;5075307;28;20490;-59
2021/12/30 03:22:19;;;;;;;11.83;2.40;;;;;;;18.74;57.67;100414.25;5057016;28;20232;-59
2021/12/30 03:24:44;;;;;;;8.07;2.50;;;;;;;18.77;57.73;100413.50;5075716;28;20948;-60
2021/12/30 03:27:09;;;;;;;5.17;1.90;;;;;;;18.74;57.69;100417.13;5074020;28;20661;-60
2021/12/30 03:29:35;;;;;;;7.70;2.47;;;;;;;18.77;57.66;100413.50;5075855;28;20182;-60
2021/12/30 03:32:00;;;;;;;11.07;2.30;;;;;;;18.76;57.60;100420.41;5074833;28;20179;-59
2021/12/30 03:34:26;;;;;;;6.33;2.20;;;;;;;18.78;57.83;100428.63;5075038;28;20175;-60
2021/12/30 03:36:51;;;;;;;5.90;1.93;;;;;;;18.76;57.76;100429.00;5074409;28;20221;-60
2021/12/30 03:39:17;;;;;;;6.80;2.07;;;;;;;18.74;57.77;100428.56;5075311;28;20657;-60
2021/12/30 03:41:42;;;;;;;7.20;2.27;;;;;;;18.76;57.67;100429.00;5074254;28;20179;-59
2021/12/30 03:44:08;;;;;;;12.20;2.93;;;;;;;18.79;57.46;100433.97;5075106;28;20178;-60
2021/12/30 03:46:33;;;;;;;4.63;2.00;;;;;;;18.76;57.74;100439.63;5072805;28;20210;-60
2021/12/30 03:49:00;;;;;;;5.03;2.17;;;;;;;18.76;57.68;100433.91;5073900;28;20440;-60
2021/12/30 03:51:26;;;;;;;9.43;2.40;;;;;;;18.73;57.91;100443.25;5074560;28;20494;-59
2021/12/30 03:53:56;;;;;;;8.27;2.40;;;;;;;18.76;57.35;100443.31;5073588;28;20448;-60
2021/12/30 03:56:24;;;;;;;7.43;2.17;;;;;;;18.77;57.40;100441.28;5045717;28;20199;-60
2021/12/30 03:58:50;;;;;;;5.10;2.30;;;;;;;18.74;57.80;100448.59;5054088;28;20466;-60
2021/12/30 04:01:19;;;;;;;6.07;2.17;;;;;;;18.75;57.72;100455.13;5071370;28;20478;-59
2021/12/30 04:03:44;;;;;;;10.60;2.80;;;;;;;18.78;57.49;100460.94;5073826;28;20195;-60
2021/12/30 04:06:10;;;;;;;10.00;2.13;;;;;;;18.76;57.37;100462.50;5074449;28;20539;-60
2021/12/30 04:08:35;;;;;;;7.47;2.30;;;;;;;18.77;57.36;100467.03;5074256;28;20284;-61
2021/12/30 04:11:01;;;;;;;6.27;2.87;;;;;;;18.75;57.59;100470.25;5074519;28;20646;-60
2021/12/30 04:13:27;;;;;;;10.00;2.10;;;;;;;18.74;57.61;100479.22;5056431;28;20270;-60
2021/12/30 04:15:52;;;;;;;6.90;2.30;;;;;;;18.74;57.40;100482.91;5087814;28;20228;-60
2021/12/30 04:18:18;;;;;;;7.60;2.20;;;;;;;18.76;57.75;100474.75;5072545;28;20187;-60
2021/12/30 04:20:43;;;;;;;7.03;3.10;;;;;;;18.76;57.69;100480.47;5061542;28;20271;-60
2021/12/30 04:23:09;;;;;;;9.83;2.13;;;;;;;18.75;57.50;100478.84;5051675;28;20715;-59
2021/12/30 04:25:34;;;;;;;6.37;2.40;;;;;;;18.76;57.30;100465.38;5052506;28;20578;-60
2021/12/30 04:28:00;;;;;;;7.23;2.27;;;;;;;18.74;57.84;100477.19;5069535;28;20182;-60
2021/12/30 04:30:26;;;;;;;12.23;2.40;;;;;;;18.74;57.50;100465.75;5071945;28;20181;-60
2021/12/30 04:32:52;;;;;;;5.73;1.87;;;;;;;18.75;57.67;100478.84;5071417;28;20183;-59
2021/12/30 04:35:17;;;;;;;6.70;2.90;;;;;;;18.72;57.35;100485.28;5052740;28;20436;-60
2021/12/30 04:37:43;;;;;;;6.20;2.23;;;;;;;18.71;57.81;100489.38;5070551;28;20179;-59
2021/12/30 04:40:09;;;;;;;6.27;1.87;;;;;;;18.73;57.45;100484.13;5070033;28;20236;-60
2021/12/30 04:42:35;;;;;;;7.23;1.80;;;;;;;18.75;57.21;100486.56;5066513;28;20249;-60
2021/12/30 04:45:00;;;;;;;6.83;2.00;;;;;;;18.76;57.32;100483.34;5071031;28;20937;-60
2021/12/30 04:47:26;;;;;;;8.03;2.70;;;;;;;18.75;57.49;100492.28;5068896;28;20547;-60
2021/12/30 04:49:52;;;;;;;7.57;2.40;;;;;;;18.75;57.31;100498.84;5070648;28;20485;-59
2021/12/30 04:52:18;;;;;;;7.77;2.30;;;;;;;18.78;57.07;100500.97;5070351;28;20596;-59
2021/12/30 04:54:43;;;;;;;5.13;2.20;;;;;;;18.78;57.48;100498.13;5071471;28;20433;-60
2021/12/30 04:57:09;;;;;;;5.43;2.00;;;;;;;18.76;57.22;100506.22;5070432;28;20178;-59
2021/12/30 04:59:34;;;;;;;5.70;1.93;;;;;;;18.75;57.66;100507.44;5068888;28;20220;-60
2021/12/30 05:02:00;;;;;;;6.53;2.00;;;;;;;18.78;57.28;100511.56;5070131;28;20198;-59
2021/12/30 05:04:25;;;;;;;7.33;1.90;;;;;;;18.75;57.54;100503.75;5070712;28;20175;-60
2021/12/30 05:06:51;;;;;;;6.30;2.10;;;;;;;18.71;57.65;100506.53;5071118;28;20207;-60
2021/12/30 05:09:16;;;;;;;6.87;2.17;;;;;;;18.75;57.16;100521.75;5070640;28;20179;-60
2021/12/30 05:11:42;;;;;;;8.50;2.27;;;;;;;18.72;57.33;100513.09;5070303;28;20195;-60
2021/12/30 05:14:11;;;;;;;4.43;1.97;;;;;;;18.76;57.30;100525.44;5070936;28;20190;-60
2021/12/30 05:16:37;;;;;;;7.60;2.20;;;;;;;18.72;57.65;100524.53;5070175;28;20190;-60
2021/12/30 05:19:02;;;;;;;4.60;1.83;;;;;;;18.73;57.27;100532.75;5069972;28;20437;-59
2021/12/30 05:21:28;;;;;;;4.37;1.83;;;;;;;18.74;56.93;100531.53;5066338;28;20466;-60
2021/12/30 05:23:53;;;;;;;6.10;2.20;;;;;;;18.71;57.58;100537.19;5069642;28;20207;-60
2021/12/30 05:26:19;;;;;;;4.60;1.70;;;;;;;18.72;58.10;100536.78;5070529;28;20258;-60
2021/12/30 05:28:44;;;;;;;5.20;1.77;;;;;;;18.76;57.25;100529.09;5052085;28;20186;-60
2021/12/30 05:31:10;;;;;;;5.00;1.47;;;;;;;18.73;57.10;100529.03;5070835;28;20176;-60
2021/12/30 05:33:35;;;;;;;7.43;1.60;;;;;;;18.71;57.52;100540.03;5069606;28;20190;-60
2021/12/30 05:36:01;;;;;;;5.57;2.40;;;;;;;18.75;57.26;100538.91;5070400;28;20216;-60
2021/12/30 05:38:26;;;;;;;5.00;1.80;;;;;;;18.80;56.91;100543.47;5067721;28;20253;-60
2021/12/30 05:40:52;;;;;;;6.03;1.80;;;;;;;18.75;57.31;100541.75;5070975;28;20190;-60
2021/12/30 05:43:17;;;;;;;5.40;2.37;;;;;;;18.74;57.33;100540.09;5070047;28;20182;-60
2021/12/30 05:45:43;;;;;;;4.13;1.60;;;;;;;18.73;57.64;100538.47;5070962;28;20183;-60
2021/12/30 05:48:08;;;;;;;4.73;2.10;;;;;;;18.74;57.23;100542.13;5069441;28;20546;-60
2021/12/30 05:50:34;;;;;;;5.10;2.20;;;;;;;18.76;57.17;100539.75;5070458;28;20183;-59
2021/12/30 05:52:59;;;;;;;5.13;1.90;;;;;;;18.74;57.57;100545.84;5066270;28;20200;-60
2021/12/30 05:55:25;;;;;;;7.00;2.00;;;;;;;18.73;57.14;100549.91;5051779;28;20601;-59
2021/12/30 05:57:52;;;;;;;6.63;2.00;;;;;;;18.76;57.18;100548.31;5067049;28;20186;-60
2021/12/30 06:00:19;;;;;;;5.10;1.87;;;;;;;18.77;57.14;100561.41;5066002;28;20226;-60
2021/12/30 06:02:44;;;;;;;5.77;1.93;;;;;;;18.75;57.10;100564.63;5069289;28;20441;-59
2021/12/30 06:05:10;;;;;;;5.13;1.70;;;;;;;18.72;57.28;100571.09;5062785;28;21004;-59
2021/12/30 06:07:35;;;;;;;3.90;1.47;;;;;;;18.76;57.00;100576.91;5050179;28;20208;-60
2021/12/30 06:10:01;;;;;;;4.70;1.77;;;;;;;18.73;57.60;100584.22;5054346;28;20186;-60
2021/12/30 06:12:26;;;;;;;6.97;1.93;;;;;;;18.74;57.35;100590.75;5068733;28;20768;-60
2021/12/30 06:14:52;;;;;;;4.40;1.80;;;;;;;18.76;57.05;100582.63;5069398;28;20258;-60
2021/12/30 06:17:17;;;;;;;5.30;1.87;;;;;;;18.73;57.27;100581.34;5067956;28;20580;-60
2021/12/30 06:19:43;;;;;;;3.53;1.37;;;;;;;18.74;57.27;100580.16;5069435;28;20642;-60
2021/12/30 06:22:12;;;;;;;6.37;2.17;;;;;;;18.71;57.79;100586.59;5044662;28;20655;-60
2021/12/30 06:24:37;;;;;;;5.53;1.80;;;;;;;18.77;57.05;100581.44;5065610;28;20187;-60
2021/12/30 06:27:03;;;;;;;4.73;1.87;;;;;;;18.73;57.32;100578.50;5067482;28;21022;-59
2021/12/30 06:29:28;;;;;;;5.13;1.63;;;;;;;18.74;57.24;100583.00;5069773;28;20653;-60
2021/12/30 06:31:54;;;;;;;4.17;1.77;;;;;;;18.74;57.04;100597.31;5069113;28;20186;-60
2021/12/30 06:34:19;;;;;;;4.97;1.87;;;;;;;18.78;56.98;100603.94;5069064;28;20619;-59
2021/12/30 06:36:45;;;;;;;7.53;1.83;;;;;;;18.75;57.26;100593.25;5062026;28;20199;-60
2021/12/30 06:39:10;;;;;;;5.27;2.10;;;;;;;18.75;56.98;100598.13;5067976;28;20179;-60
2021/12/30 06:41:35;;;;;;;5.37;1.50;;;;;;;18.75;57.38;100606.69;5066136;28;20182;-60
2021/12/30 06:44:01;;;;;;;4.90;1.67;;;;;;;18.73;57.25;100600.53;5067681;28;20175;-59
2021/12/30 06:46:26;;;;;;;5.30;1.73;;;;;;;18.74;56.88;100594.44;5069601;28;20210;-59
2021/12/30 06:48:52;;;;;;;9.60;2.00;;;;;;;18.75;56.91;100601.81;5068971;28;20187;-60
2021/12/30 06:51:21;;;;;;;4.90;1.53;;;;;;;18.77;56.93;100613.69;5069601;28;20179;-60
2021/12/30 06:53:47;;;;;;;4.27;1.50;;;;;;;18.79;56.75;100611.31;5068023;28;20270;-60
2021/12/30 06:56:12;;;;;;;5.43;1.87;;;;;;;18.76;57.07;100616.97;5069550;28;20774;-60
2021/12/30 06:58:38;;;;;;;4.80;1.90;;;;;;;18.76;57.18;100620.63;5067562;28;20756;-60
2021/12/30 07:01:03;;;;;;;4.73;1.60;;;;;;;18.78;56.85;100626.81;5068102;28;20183;-60
2021/12/30 07:03:29;;;;;;;5.93;1.77;;;;;;;18.76;57.07;100629.22;5068129;28;20179;-59
2021/12/30 07:05:55;;;;;;;4.57;1.47;;;;;;;18.81;57.05;100628.09;5069660;28;20320;-60
2021/12/30 07:08:22;;;;;;;3.90;1.53;;;;;;;18.75;57.06;100639.00;5067657;28;20183;-60
2021/12/30 07:10:48;;;;;;;5.33;1.73;;;;;;;18.74;57.43;100651.66;5066233;28;20187;-60
2021/12/30 07:13:14;;;;;;;4.47;1.83;;;;;;;18.75;56.92;100656.16;5065126;28;21271;-59
2021/12/30 07:15:39;;;;;;;4.83;1.40;;;;;;;18.76;57.05;100659.88;5069023;28;20516;-60
2021/12/30 07:18:05;;;;;;;5.13;1.70;;;;;;;18.75;56.99;100667.59;5068395;28;20240;-60
2021/12/30 07:20:30;;;;;;;4.00;1.70;;;;;;;18.79;57.15;100674.25;5069365;28;20174;-60
2021/12/30 07:22:56;;;;;;;5.50;1.80;;;;;;;18.77;56.69;100670.91;5065536;28;20202;-60
2021/12/30 07:25:21;;;;;;;4.10;1.60;;;;;;;18.76;57.20;100669.25;5065460;28;20191;-60
2021/12/30 07:27:48;;;;;;;3.07;1.30;;;;;;;18.79;56.58;100671.38;5066636;28;20712;-60
2021/12/30 07:30:13;;;;;;;4.57;1.43;;;;;;;18.77;57.07;100670.91;5068990;28;20218;-59
2021/12/30 07:32:39;;;;;;;3.73;1.57;;;;;;;18.76;56.75;100669.25;5068640;28;20410;-60
2021/12/30 07:35:05;;;;;;;2.57;1.30;;;;;;;18.75;57.64;100666.75;5069141;28;20175;-59
2021/12/30 07:37:30;;;;;;;6.40;1.60;;;;;;;18.75;56.98;100673.31;5068008;28;20183;-60
2021/12/30 07:39:55;;;;;;;6.37;1.93;;;;;;;18.77;57.13;100675.81;5068453;28;20248;-60
2021/12/30 07:42:21;;;;;;;6.70;2.33;;;;;;;18.78;56.66;100684.03;5068169;28;20174;-60
2021/12/30 07:44:47;;;;;;;2.97;1.30;;;;;;;18.77;56.86;100687.25;5069161;28;20692;-59
2021/12/30 07:47:12;;;;;;;4.30;1.60;;;;;;;18.75;57.26;100695.38;5067813;28;20207;-60
2021/12/30 07:49:38;;;;;;;6.83;1.60;;;;;;;18.76;56.90;100694.19;5068096;28;20187;-59
2021/12/30 07:52:04;;;;;;;4.70;1.53;;;;;;;18.77;57.08;100695.84;5067627;28;20179;-59
2021/12/30 07:54:30;;;;;;;4.37;1.47;;;;;;;18.79;56.75;100700.00;5072218;28;20413;-60
2021/12/30 07:56:55;;;;;;;5.53;1.60;;;;;;;18.76;57.09;100700.72;5072056;28;20911;-59
2021/12/30 07:59:21;;;;;;;5.43;1.77;;;;;;;18.77;56.84;100699.50;5068818;28;20222;-60
2021/12/30 08:01:46;;;;;;;5.20;1.60;;;;;;;18.81;56.66;100706.16;5068674;28;20179;-60
2021/12/30 08:04:11;;;;;;;3.83;1.43;;;;;;;18.79;56.92;100713.44;5070876;28;20484;-59
2021/12/30 08:06:37;;;;;;;4.70;1.80;;;;;;;18.77;56.89;100715.88;5071164;28;20225;-60
2021/12/30 08:09:02;;;;;;;4.13;1.70;;;;;;;18.76;56.75;100717.88;5071524;28;20270;-60
2021/12/30 08:11:28;;;;;;;3.10;1.40;;;;;;;18.77;56.95;100716.69;5070928;28;20639;-60
2021/12/30 08:13:53;;;;;;;4.70;1.67;;;;;;;18.79;57.00;100711.44;5057047;28;20253;-60
2021/12/30 08:16:19;;;;;;;3.40;1.30;;;;;;;18.79;56.65;100720.00;5052633;28;20484;-60
2021/12/30 08:18:44;;;;;;;4.47;1.40;;;;;;;18.76;56.75;100708.50;5061804;28;20194;-60
2021/12/30 08:21:10;;;;;;;6.23;1.57;;;;;;;18.80;57.05;100709.38;5071728;28;20183;-59
2021/12/30 08:23:35;;;;;;;3.10;1.47;;;;;;;18.79;57.06;100702.84;5071323;28;20167;-60
2021/12/30 08:26:05;;;;;;;5.43;1.60;;;;;;;18.82;56.72;100695.56;5070293;28;20210;-60
2021/12/30 08:28:31;;;;;;;4.30;1.80;;;;;;;18.77;57.17;100705.22;5053269;28;20191;-60
2021/12/30 08:30:56;;;;;;;7.50;1.63;;;;;;;18.78;56.65;100706.91;5066144;28;20442;-60
2021/12/30 08:33:21;;;;;;;3.70;1.20;;;;;;;18.75;56.78;100710.50;5066387;28;20181;-59
2021/12/30 08:35:47;;;;;;;3.40;1.40;;;;;;;18.78;56.58;100706.91;5071047;28;20175;-60
2021/12/30 08:38:13;;;;;;;3.67;1.30;;;;;;;18.76;57.20;100715.03;5070027;28;20256;-60
2021/12/30 08:40:39;;;;;;;5.00;1.50;;;;;;;18.80;56.88;100721.66;5069910;28;20665;-60
2021/12/30 08:43:06;;;;;;;4.00;1.87;;;;;;;18.81;56.64;100716.78;5070780;28;20179;-60
2021/12/30 08:45:32;;;;;;;4.67;1.50;;;;;;;18.81;56.62;100723.31;5070515;28;20214;-60
2021/12/30 08:47:58;;;;;;;2.90;1.40;;;;;;;18.78;56.75;100726.09;5071452;28;20421;-60
2021/12/30 08:50:23;;;;;;;3.83;1.50;;;;;;;18.79;56.65;100739.19;5069690;28;20500;-60
2021/12/30 08:52:49;;;;;;;2.80;1.20;;;;;;;18.79;56.83;100737.19;5071032;28;20187;-60
2021/12/30 08:55:14;;;;;;;4.23;1.97;;;;;;;18.78;56.65;100732.66;5071019;28;20163;-59
2021/12/30 08:57:41;;;;;;;3.60;1.63;;;;;;;18.80;56.82;100735.97;5071294;28;20183;-60
2021/12/30 09:00:13;;;;;;;3.63;1.50;;;;;;;18.79;56.67;100731.44;5066883;28;20613;-60
2021/12/30 09:02:38;;;;;;;2.90;1.30;;;;;;;18.79;56.65;100730.63;5068841;28;20978;-60
2021/12/30 09:05:04;;;;;;;4.27;1.33;;;;;;;18.78;56.47;100724.09;5052268;28;20417;-60
2021/12/30 09:07:30;;;;;;;2.80;1.20;;;;;;;18.77;56.98;100728.13;5069538;28;20214;-60
2021/12/30 09:09:55;;;;;;;2.33;1.00;;;;;;;18.78;56.47;100726.94;5069522;28;20175;-60
2021/12/30 09:12:22;;;;;;;4.93;1.63;;;;;;;18.80;56.51;100726.53;5069381;28;20183;-59
2021/12/30 09:14:48;;;;;;;2.20;1.17;;;;;;;18.79;56.94;100725.72;5068513;28;20179;-60
2021/12/30 09:17:13;;;;;;;3.70;1.20;;;;;;;18.80;56.55;100730.25;5069836;28;20409;-60
2021/12/30 09:19:39;;;;;;;4.53;1.40;;;;;;;18.79;56.72;100717.16;5066092;28;20225;-60
2021/12/30 09:22:04;;;;;;;4.87;1.40;;;;;;;18.79;56.66;100710.59;5070844;28;20613;-60
2021/12/30 09:24:29;;;;;;;2.77;1.20;;;;;;;18.79;56.43;100725.72;5069105;28;20693;-60
2021/12/30 09:26:55;;;;;;;4.37;1.70;;;;;;;18.80;56.56;100715.09;5070771;28;20229;-60
2021/12/30 09:29:20;;;;;;;2.90;1.30;;;;;;;18.80;56.47;100721.66;5069686;28;20648;-60
2021/12/30 09:31:48;;;;;;;4.50;1.60;;;;;;;18.79;56.86;100719.16;5071145;28;20174;-63
2021/12/30 09:34:14;;;;;;;4.10;1.73;;;;;;;18.80;56.53;100715.94;5069812;28;20273;-60
2021/12/30 09:36:39;;;;;;;2.63;1.23;;;;;;;18.84;56.41;100730.31;5070424;28;20489;-60
2021/12/30 09:39:10;;;;;;;3.70;1.40;;;;;;;18.84;56.25;100733.19;5070212;28;20167;-60
2021/12/30 09:41:37;;;;;;;6.00;1.53;;;;;;;18.77;56.88;100733.03;5071687;28;20666;-64
2021/12/30 09:44:04;;;;;;;4.27;1.40;;;;;;;18.80;56.53;100738.81;5070008;28;20425;-61
2021/12/30 09:46:30;;;;;;;3.20;1.50;;;;;;;18.80;56.74;100733.09;5069599;28;20449;-61
2021/12/30 09:48:55;;;;;;;3.00;1.40;;;;;;;18.79;56.78;100745.75;5050390;28;20467;-62
2021/12/30 09:51:21;;;;;;;3.50;1.63;;;;;;;18.81;56.47;100748.25;5069621;28;20171;-61
2021/12/30 09:53:49;;;;;;;4.03;1.17;;;;;;;18.80;56.62;100738.81;5061324;28;20462;-61
2021/12/30 09:56:15;;;;;;;3.43;1.33;;;;;;;18.77;56.89;100745.28;5070489;28;20402;-61
2021/12/30 09:58:40;;;;;;;3.80;1.50;;;;;;;18.78;56.78;100749.81;5069317;28;20468;-61
2021/12/30 10:01:06;;;;;;;3.80;1.60;;;;;;;18.79;56.86;100754.34;5069520;28;20803;-61
2021/12/30 10:03:31;;;;;;;3.10;1.20;;;;;;;18.80;56.76;100763.72;5069534;28;20642;-61
2021/12/30 10:06:05;;;;;;;5.97;1.40;;;;;;;18.80;56.88;100770.28;5069722;28;20210;-61
2021/12/30 10:08:32;;;;;;;3.40;1.27;;;;;;;18.79;56.40;100773.53;5068401;28;20175;-60
2021/12/30 10:10:58;;;;;;;2.57;1.00;;;;;;;18.80;56.72;100761.72;5066835;28;20449;-60
2021/12/30 10:13:29;;;;;;;4.13;1.40;;;;;;;18.78;56.74;100752.69;5079051;28;20424;-60
2021/12/30 10:16:02;;;;;;;3.97;1.33;;;;;;;18.79;56.79;100754.34;5072554;28;20676;-60
2021/12/30 10:18:47;;;;;;;3.50;1.23;;;;;;;18.79;56.63;100757.19;5069095;28;20772;-60
2021/12/30 10:21:17;;;;;;;2.47;1.13;;;;;;;18.80;56.60;100752.28;5062837;28;20527;-60
2021/12/30 10:23:47;;;;;;;4.80;1.10;;;;;;;18.78;56.34;100758.41;5067489;28;20792;-60
2021/12/30 10:26:15;;;;;;;3.00;1.00;;;;;;;18.78;56.71;100755.53;5051444;28;20450;-60
2021/12/30 10:28:43;;;;;;;2.93;1.30;;;;;;;18.77;56.76;100753.88;5068329;28;20539;-60
2021/12/30 10:31:12;;;;;;;3.10;1.40;;;;;;;18.78;56.50;100754.69;5068786;28;20402;-60
2021/12/30 10:34:01;;;;;;;2.17;1.00;;;;;;;18.78;56.55;100755.53;5070440;28;20413;-61
2021/12/30 10:36:31;;;;;;;3.23;1.30;;;;;;;18.78;56.58;100758.41;5045579;28;20492;-60
2021/12/30 10:39:29;;;;;;;5.43;1.90;;;;;;;18.80;56.25;100758.84;5050565;28;21500;-60
2021/12/30 10:42:16;;;;;;;2.27;0.90;;;;;;;18.77;56.92;100759.59;5048931;28;20505;-60
2021/12/30 10:44:55;;;;;;;2.53;1.20;;;;;;;18.77;56.44;100753.88;5049504;28;20497;-60
2021/12/30 10:47:23;;;;;;;6.23;1.50;;;;;;;18.78;56.55;100748.97;5068870;28;20518;-60
2021/12/30 10:50:07;;;;;;;3.13;1.30;;;;;;;18.76;56.76;100759.97;5069103;28;20551;-60
2021/12/30 10:52:33;;;;;;;2.00;0.93;;;;;;;18.76;56.56;100755.06;5069483;28;20839;-59
2021/12/30 10:55:00;;;;;;;3.80;1.00;;;;;;;18.73;56.95;100755.81;5069221;28;20493;-60
2021/12/30 10:57:29;;;;;;;2.27;1.30;;;;;;;18.76;56.50;100757.94;5067186;28;20448;-60
2021/12/30 10:59:54;;;;;;;4.13;1.37;;;;;;;18.77;56.35;100762.44;5068555;28;20466;-60
2021/12/30 11:02:21;;;;;;;2.23;1.00;;;;;;;18.77;56.54;100761.63;5067788;28;20413;-60
2021/12/30 11:04:48;;;;;;;2.77;1.13;;;;;;;18.75;56.78;100764.84;5067102;28;20179;-60
2021/12/30 11:07:18;;;;;;;2.67;1.23;;;;;;;18.74;57.01;100760.34;5067972;28;20472;-66
2021/12/30 11:09:47;;;;;;;2.30;0.90;;;;;;;18.75;56.56;100744.84;5068807;28;20445;-60
2021/12/30 11:12:13;;;;;;;3.70;1.30;;;;;;;18.73;57.23;100744.38;5068068;28;20425;-60
2021/12/30 11:14:38;;;;;;;3.20;1.10;;;;;;;18.74;56.41;100746.03;5068712;28;20430;-60
2021/12/30 11:17:09;;;;;;;4.30;1.77;;;;;;;18.73;56.60;100743.53;5067631;28;20186;-60
2021/12/30 11:19:38;;;;;;;2.43;0.97;;;;;;;18.74;56.58;100743.19;5067276;28;20183;-60
2021/12/30 11:22:09;;;;;;;3.73;1.00;;;;;;;18.75;56.67;100738.28;5069119;28;20528;-60